Time;durP1;ratioP1;P1;durP2;ratioP2;P2;SDS_P1;SDS_P2;PMS_P1;PMS_P2;Temp;Humidity;BMP_temperature;BMP_pressure;BME280_temperature;BME280_humidity;BME280_pressure;Samples;Min_cycle;Max_cycle;Signal;HPM_P1;HPM_P2
2022/12/21 00:01:55;;;;;;;57.10;24.00;;;;;;;0.51;100.00;96282.75;5048574;28;20110;-85
2022/12/21 00:04:22;;;;;;;54.25;24.15;;;;;;;0.55;100.00;96270.47;5056761;28;22267;-84
2022/12/21 00:06:49;;;;;;;54.83;25.38;;;;;;;0.54;100.00;96282.25;5056459;28;20036;-86
2022/12/21 00:09:16;;;;;;;54.42;24.00;;;;;;;0.57;100.00;96292.44;5057060;28;20059;-83
2022/12/21 00:11:42;;;;;;;55.50;23.80;;;;;;;0.59;100.00;96279.63;5056281;28;20060;-83
2022/12/21 00:14:10;;;;;;;58.58;24.52;;;;;;;0.60;100.00;96281.22;5055115;28;20056;-85
2022/12/21 00:16:38;;;;;;;50.53;22.88;;;;;;;0.65;100.00;96291.97;5056176;28;20094;-85
2022/12/21 00:19:06;;;;;;;52.55;23.10;;;;;;;0.68;100.00;96278.09;5056022;28;20059;-83
2022/12/21 00:21:35;;;;;;;51.80;22.98;;;;;;;0.71;100.00;96274.88;5056151;28;20060;-84
2022/12/21 00:24:01;;;;;;;60.60;24.75;;;;;;;0.73;100.00;96275.44;5072188;28;20045;-83
2022/12/21 00:26:30;;;;;;;51.65;23.48;;;;;;;0.77;100.00;96267.66;5074677;28;20055;-83
2022/12/21 00:28:58;;;;;;;51.15;22.42;;;;;;;0.80;100.00;96263.69;5076741;28;20048;-84
2022/12/21 00:31:26;;;;;;;50.75;22.27;;;;;;;0.74;100.00;96260.97;5075403;28;20043;-83
2022/12/21 00:33:53;;;;;;;50.25;22.80;;;;;;;0.75;100.00;96264.47;5052484;28;20048;-83
2022/12/21 00:36:23;;;;;;;48.55;22.50;;;;;;;0.80;100.00;96275.22;5055705;28;20045;-84
2022/12/21 00:38:49;;;;;;;51.92;21.25;;;;;;;0.81;100.00;96270.66;5056224;28;20053;-84
2022/12/21 00:41:18;;;;;;;52.80;22.40;;;;;;;0.85;100.00;96266.41;5056441;28;20168;-86
2022/12/21 00:43:45;;;;;;;49.05;22.48;;;;;;;0.85;100.00;96280.59;5056141;28;20048;-84
2022/12/21 00:46:17;;;;;;;55.60;23.00;;;;;;;0.88;100.00;96287.31;5056211;28;20048;-84
2022/12/21 00:48:43;;;;;;;53.00;22.08;;;;;;;0.86;100.00;96282.22;5056096;28;20052;-86
2022/12/21 00:51:13;;;;;;;49.40;23.25;;;;;;;0.89;100.00;96284.41;5055614;28;20041;-83
2022/12/21 00:53:41;;;;;;;43.97;21.38;;;;;;;0.93;100.00;96287.34;5068763;28;20056;-84
2022/12/21 00:56:09;;;;;;;41.95;19.95;;;;;;;0.95;100.00;96271.84;5075615;28;20048;-86
2022/12/21 00:58:37;;;;;;;43.95;20.92;;;;;;;0.93;100.00;96276.63;5076480;28;20460;-86
2022/12/21 01:01:06;;;;;;;49.38;20.90;;;;;;;0.91;100.00;96274.22;5076419;28;20040;-86
2022/12/21 01:03:33;;;;;;;50.35;21.67;;;;;;;0.95;100.00;96282.56;5075305;28;20075;-83
2022/12/21 01:05:59;;;;;;;44.67;21.80;;;;;;;0.88;100.00;96287.31;5076104;28;20064;-84
2022/12/21 01:08:26;;;;;;;48.75;21.70;;;;;;;0.89;100.00;96294.28;5076000;28;20048;-85
2022/12/21 01:10:59;;;;;;;44.70;20.13;;;;;;;0.88;100.00;96296.16;5055818;28;20559;-84
2022/12/21 01:13:26;;;;;;;53.53;21.25;;;;;;;0.89;100.00;96296.97;5060660;28;20045;-84
2022/12/21 01:15:52;;;;;;;44.92;21.23;;;;;;;0.88;100.00;96304.19;5060355;28;20044;-84
2022/12/21 01:18:19;;;;;;;46.28;20.92;;;;;;;0.89;100.00;96310.38;5061225;28;20041;-83
2022/12/21 01:20:47;;;;;;;49.78;22.27;;;;;;;0.87;100.00;96316.00;5059571;28;20060;-85
2022/12/21 01:23:15;;;;;;;50.55;21.48;;;;;;;0.89;100.00;96310.38;5058647;28;20048;-84
2022/12/21 01:25:42;;;;;;;46.30;20.73;;;;;;;0.92;100.00;96304.50;5059766;28;20049;-84
2022/12/21 01:28:10;;;;;;;45.85;20.48;;;;;;;0.94;100.00;96303.19;5059252;28;20079;-84
2022/12/21 01:30:38;;;;;;;43.95;19.27;;;;;;;0.97;100.00;96301.88;5058684;28;20064;-85
2022/12/21 01:33:05;;;;;;;48.33;20.92;;;;;;;1.00;100.00;96296.78;5058600;28;20119;-84
2022/12/21 01:35:31;;;;;;;49.72;19.00;;;;;;;1.02;100.00;96293.84;5059109;28;20456;-85
2022/12/21 01:37:58;;;;;;;48.45;21.40;;;;;;;1.02;100.00;96299.22;5059126;28;20045;-86
2022/12/21 01:40:25;;;;;;;46.78;19.98;;;;;;;1.01;100.00;96292.25;5058640;28;20094;-86
2022/12/21 01:42:51;;;;;;;43.70;21.05;;;;;;;0.99;100.00;96294.34;5058016;28;20044;-84
2022/12/21 01:45:23;;;;;;;44.53;20.90;;;;;;;1.00;100.00;96293.31;5058519;28;20048;-84
2022/12/21 01:47:53;;;;;;;53.13;23.58;;;;;;;0.88;100.00;96292.69;5059160;28;20045;-83
2022/12/21 01:50:32;;;;;;;44.60;20.73;;;;;;;0.90;100.00;96282.53;5058047;28;20076;-84
2022/12/21 01:53:01;;;;;;;47.30;20.52;;;;;;;0.91;100.00;96287.63;5058714;28;20102;-84
2022/12/21 01:55:29;;;;;;;53.03;22.08;;;;;;;0.91;100.00;96276.91;5077878;28;20037;-78
2022/12/21 01:57:56;;;;;;;48.80;20.33;;;;;;;0.93;100.00;96277.44;5079023;28;20539;-84
2022/12/21 02:00:24;;;;;;;54.55;22.83;;;;;;;0.92;100.00;96272.34;5078237;28;20044;-84
2022/12/21 02:02:54;;;;;;;50.05;21.35;;;;;;;0.93;100.00;96281.97;5078269;28;20044;-84
2022/12/21 02:05:26;;;;;;;49.83;20.45;;;;;;;0.94;100.00;96275.56;5078036;28;20049;-87
2022/12/21 02:07:54;;;;;;;48.30;21.05;;;;;;;0.92;100.00;96273.13;5078845;28;20405;-83
2022/12/21 02:10:20;;;;;;;52.53;22.88;;;;;;;0.91;100.00;96276.09;5078104;28;20044;-84
2022/12/21 02:12:50;;;;;;;48.92;21.17;;;;;;;0.92;100.00;96261.59;5075756;28;20052;-83
2022/12/21 02:15:17;;;;;;;50.00;20.65;;;;;;;0.95;100.00;96267.28;5076191;28;20048;-88
2022/12/21 02:17:50;;;;;;;48.95;20.48;;;;;;;0.95;100.00;96261.91;5076228;28;20056;-84
2022/12/21 02:20:42;;;;;;;51.33;20.67;;;;;;;0.94;100.00;96257.63;5075498;28;20048;-88
2022/12/21 02:23:42;;;;;;;45.28;19.73;;;;;;;0.98;100.00;96257.88;5050777;28;20048;-85
2022/12/21 02:26:23;;;;;;;52.17;20.25;;;;;;;0.96;100.00;96249.31;5051274;28;20110;-88
2022/12/21 02:29:26;;;;;;;45.25;19.55;;;;;;;0.99;100.00;96257.66;5056735;28;20037;-86
2022/12/21 02:32:05;;;;;;;52.08;21.77;;;;;;;0.94;100.00;96254.94;5056394;28;20048;-88
2022/12/21 02:34:39;;;;;;;51.25;22.17;;;;;;;0.87;100.00;96253.53;5056105;28;20044;-85
2022/12/21 02:37:11;;;;;;;53.08;21.33;;;;;;;0.93;100.00;96255.19;5056292;28;20037;-87
2022/12/21 02:39:50;;;;;;;50.72;21.13;;;;;;;0.99;100.00;96256.81;5056119;28;20647;-85
2022/12/21 02:45:18;;;;;;;45.65;19.83;;;;;;;1.00;100.00;96253.09;5050259;28;20047;-85
2022/12/21 02:47:50;;;;;;;45.50;20.15;;;;;;;1.02;100.00;96256.31;5056728;28;20045;-85
2022/12/21 02:50:20;;;;;;;44.45;18.88;;;;;;;1.03;100.00;96257.91;5055641;28;20069;-84
2022/12/21 02:52:52;;;;;;;47.22;19.35;;;;;;;1.06;100.00;96252.06;5061395;28;20127;-85
2022/12/21 02:55:18;;;;;;;47.45;19.55;;;;;;;1.06;100.00;96273.50;5075971;28;20043;-88
2022/12/21 02:57:45;;;;;;;42.05;18.73;;;;;;;1.07;100.00;96280.47;5076129;28;20056;-84
2022/12/21 03:00:16;;;;;;;43.80;19.40;;;;;;;1.07;100.00;96283.16;5076426;28;20048;-88
2022/12/21 03:05:53;;;;;;;39.83;17.45;;;;;;;1.10;100.00;96277.28;5075453;28;20044;-86
2022/12/21 03:08:29;;;;;;;45.53;18.98;;;;;;;1.13;100.00;96274.06;5075659;28;20036;-87
2022/12/21 03:10:59;;;;;;;47.08;19.35;;;;;;;1.16;100.00;96281.59;5052953;28;20467;-85
2022/12/21 03:13:35;;;;;;;45.58;18.73;;;;;;;1.15;100.00;96287.22;5056103;28;20045;-82
2022/12/21 03:16:09;;;;;;;44.65;20.48;;;;;;;1.16;100.00;96291.53;5049451;28;20090;-86
2022/12/21 03:18:47;;;;;;;49.03;20.50;;;;;;;1.14;100.00;96288.28;5055830;28;20037;-86
2022/12/21 03:21:20;;;;;;;54.85;21.90;;;;;;;1.08;100.00;96292.81;5055940;28;20044;-89
2022/12/21 03:23:54;;;;;;;53.28;21.92;;;;;;;0.95;100.00;96296.75;5055792;28;20049;-86
2022/12/21 03:26:24;;;;;;;52.50;20.17;;;;;;;0.91;100.00;96298.34;5055806;28;20151;-85
2022/12/21 03:28:54;;;;;;;52.20;21.70;;;;;;;0.90;100.00;96293.25;5057691;28;20052;-82
2022/12/21 03:31:26;;;;;;;48.30;19.08;;;;;;;0.92;100.00;96293.78;5057395;28;20045;-86
2022/12/21 03:34:01;;;;;;;52.88;21.88;;;;;;;0.90;100.00;96287.88;5057160;28;20099;-86
2022/12/21 03:36:33;;;;;;;46.05;19.00;;;;;;;0.95;100.00;96293.28;5057624;28;20492;-80
2022/12/21 03:39:05;;;;;;;37.27;14.90;;;;;;;0.89;100.00;96284.41;5057742;28;20036;-82
2022/12/21 03:41:36;;;;;;;49.67;19.67;;;;;;;0.95;100.00;96285.22;5057185;28;20052;-85
2022/12/21 03:44:07;;;;;;;48.55;19.63;;;;;;;0.92;100.00;96280.38;5057118;28;20529;-86
2022/12/21 03:46:39;;;;;;;49.15;19.45;;;;;;;0.94;100.00;96279.06;5057609;28;20532;-83
2022/12/21 03:49:13;;;;;;;44.63;18.60;;;;;;;0.96;100.00;96278.81;5058022;28;20049;-86
2022/12/21 03:51:44;;;;;;;49.00;19.88;;;;;;;0.95;100.00;96272.63;5057394;28;20049;-84
2022/12/21 03:54:18;;;;;;;37.22;18.42;;;;;;;1.00;100.00;96266.50;5073848;28;20040;-84
2022/12/21 03:56:44;;;;;;;40.28;18.02;;;;;;;1.02;100.00;96267.03;5077335;28;20428;-86
2022/12/21 03:59:13;;;;;;;44.30;19.10;;;;;;;1.00;100.00;96269.19;5077239;28;20040;-84
2022/12/21 04:01:53;;;;;;;40.80;18.60;;;;;;;1.00;100.00;96275.34;5077864;28;20064;-83
2022/12/21 04:04:27;;;;;;;45.08;18.95;;;;;;;1.03;100.00;96268.66;5076741;28;20045;-86
2022/12/21 04:06:56;;;;;;;41.75;18.98;;;;;;;1.07;100.00;96267.06;5052984;28;20067;-85
2022/12/21 04:09:23;;;;;;;44.72;19.00;;;;;;;1.07;100.00;96259.03;5054893;28;20045;-86
2022/12/21 04:14:34;;;;;;;42.53;18.30;;;;;;;1.12;100.00;96267.09;5055332;28;20055;-85
2022/12/21 04:17:00;;;;;;;50.15;19.60;;;;;;;1.08;100.00;96266.00;5056081;28;20045;-87
2022/12/21 04:28:06;;;;;;;47.83;19.52;;;;;;;1.06;100.00;96270.81;5056193;28;20091;-86
2022/12/21 04:30:26;;;;;;;43.67;19.58;;;;;;;1.01;100.00;96254.69;5055887;28;20052;-84
2022/12/21 04:32:53;;;;;;;43.83;19.48;;;;;;;1.03;100.00;96255.25;5075131;23;20051;-76
2022/12/21 04:35:20;;;;;;;45.63;19.10;;;;;;;1.06;100.00;96260.09;5048357;28;20041;-77
2022/12/21 04:37:46;;;;;;;44.55;18.35;;;;;;;1.06;100.00;96270.81;5041608;28;20055;-77
2022/12/21 04:40:12;;;;;;;54.10;20.95;;;;;;;0.94;100.00;96264.81;5066340;28;20052;-77
2022/12/21 04:42:39;;;;;;;49.78;19.58;;;;;;;0.93;100.00;96264.03;5042011;28;20053;-77
2022/12/21 04:45:07;;;;;;;47.75;19.70;;;;;;;0.96;100.00;96252.00;5066351;28;20051;-76
2022/12/21 04:47:33;;;;;;;47.03;20.40;;;;;;;0.97;100.00;96248.25;5060006;28;20123;-77
2022/12/21 04:50:00;;;;;;;45.40;19.65;;;;;;;1.03;100.00;96258.72;5069773;28;20064;-77
2022/12/21 04:52:27;;;;;;;48.55;20.75;;;;;;;0.99;100.00;96262.19;5069414;28;20041;-78
2022/12/21 04:54:54;;;;;;;43.17;18.63;;;;;;;1.03;100.00;96252.56;5069377;28;20036;-77
2022/12/21 04:57:20;;;;;;;56.10;20.83;;;;;;;1.04;100.00;96254.16;5069347;28;20068;-79
2022/12/21 04:59:47;;;;;;;47.83;19.70;;;;;;;1.03;100.00;96252.56;5069386;28;20079;-77
2022/12/21 05:02:13;;;;;;;42.78;18.55;;;;;;;1.00;100.00;96258.47;5068672;28;20055;-77
2022/12/21 05:04:40;;;;;;;44.38;18.25;;;;;;;0.98;100.00;96252.53;5069289;28;20048;-76
2022/12/21 05:07:07;;;;;;;49.50;20.02;;;;;;;0.95;100.00;96251.19;5068891;28;20040;-77
2022/12/21 05:09:35;;;;;;;47.83;19.90;;;;;;;0.94;100.00;96254.09;5069450;28;20123;-77
2022/12/21 05:12:01;;;;;;;45.80;18.20;;;;;;;0.97;100.00;96253.59;5069138;28;20415;-77
2022/12/21 05:14:28;;;;;;;44.83;18.60;;;;;;;0.99;100.00;96254.13;5068902;28;20099;-80
2022/12/21 05:16:54;;;;;;;56.45;20.15;;;;;;;1.00;100.00;96255.78;5069140;28;20044;-77
2022/12/21 05:19:21;;;;;;;46.28;19.75;;;;;;;0.98;100.00;96257.88;5069073;28;20036;-77
2022/12/21 05:21:47;;;;;;;49.35;17.85;;;;;;;1.00;100.00;96263.81;5069164;28;20045;-77
2022/12/21 05:24:13;;;;;;;45.38;18.77;;;;;;;1.02;100.00;96264.34;5068491;28;20040;-77
2022/12/21 05:26:41;;;;;;;51.13;20.60;;;;;;;0.99;100.00;96262.19;5068868;28;20053;-77
2022/12/21 05:29:08;;;;;;;48.58;20.35;;;;;;;1.00;100.00;96258.47;5068346;28;20051;-77
2022/12/21 05:31:35;;;;;;;42.72;17.95;;;;;;;1.01;100.00;96255.50;5068835;28;20128;-77
2022/12/21 05:34:01;;;;;;;44.78;19.17;;;;;;;1.00;100.00;96259.25;5069057;28;20052;-77
2022/12/21 05:36:29;;;;;;;45.63;19.90;;;;;;;1.02;100.00;96261.69;5068373;28;20450;-77
2022/12/21 05:38:56;;;;;;;48.47;19.38;;;;;;;1.05;100.00;96261.16;5068957;28;20102;-77
2022/12/21 05:41:22;;;;;;;44.63;19.15;;;;;;;1.03;100.00;96253.34;5068647;28;20049;-77
2022/12/21 05:43:50;;;;;;;53.92;20.10;;;;;;;1.01;100.00;96260.06;5068613;28;20401;-76
2022/12/21 05:46:16;;;;;;;45.13;18.52;;;;;;;1.04;100.00;96259.53;5068482;28;20492;-77
2022/12/21 05:48:43;;;;;;;39.28;16.15;;;;;;;1.09;100.00;96256.88;5068981;28;20048;-77
2022/12/21 05:51:10;;;;;;;47.42;19.80;;;;;;;1.08;100.00;96260.63;5068457;28;20814;-78
2022/12/21 05:53:40;;;;;;;43.55;18.92;;;;;;;1.07;100.00;96261.69;5068597;28;20048;-78
2022/12/21 05:56:07;;;;;;;41.10;17.20;;;;;;;1.10;100.00;96258.50;5069723;28;20552;-77
2022/12/21 05:58:33;;;;;;;36.85;16.13;;;;;;;1.10;100.00;96269.25;5072542;28;20063;-77
2022/12/21 06:01:02;;;;;;;39.35;16.63;;;;;;;1.09;100.00;96266.78;5072771;28;20052;-77
2022/12/21 06:03:29;;;;;;;40.30;17.33;;;;;;;1.07;100.00;96264.38;5072120;28;20494;-77
2022/12/21 06:06:01;;;;;;;37.88;15.02;;;;;;;1.09;100.00;96267.59;5072547;28;20045;-78
2022/12/21 06:08:29;;;;;;;37.33;15.63;;;;;;;1.10;100.00;96266.56;5071977;28;20040;-79
2022/12/21 06:10:56;;;;;;;33.95;14.32;;;;;;;1.11;100.00;96265.50;5072421;28;20618;-78
2022/12/21 06:13:22;;;;;;;34.28;14.80;;;;;;;1.15;100.00;96266.59;5071921;28;20526;-78
2022/12/21 06:15:49;;;;;;;30.88;12.95;;;;;;;1.19;100.00;96264.97;5072210;28;20539;-77
2022/12/21 06:18:16;;;;;;;36.08;15.70;;;;;;;1.19;100.00;96270.34;5071945;28;20392;-77
2022/12/21 06:20:43;;;;;;;34.90;15.23;;;;;;;1.19;100.00;96262.28;5072099;28;20076;-77
2022/12/21 06:23:09;;;;;;;31.88;14.80;;;;;;;1.21;100.00;96262.06;5071134;28;20495;-77
2022/12/21 06:25:36;;;;;;;31.55;14.30;;;;;;;1.21;100.00;96262.88;5071884;28;20126;-77
2022/12/21 06:28:02;;;;;;;33.08;14.23;;;;;;;1.25;100.00;96265.81;5071796;28;20119;-76
2022/12/21 06:30:29;;;;;;;29.08;13.85;;;;;;;1.27;100.00;96267.19;5072026;28;20048;-77
2022/12/21 06:32:55;;;;;;;26.00;14.30;;;;;;;1.31;100.00;96267.47;5071770;28;20048;-76
2022/12/21 06:35:23;;;;;;;32.97;14.40;;;;;;;1.30;100.00;96276.56;5071612;28;20048;-77
2022/12/21 06:37:49;;;;;;;28.92;13.32;;;;;;;1.26;100.00;96278.97;5071581;28;20063;-77
2022/12/21 06:40:16;;;;;;;30.45;14.90;;;;;;;1.30;100.00;96269.34;5071631;28;20048;-78
2022/12/21 06:42:42;;;;;;;29.05;14.60;;;;;;;1.33;100.00;96270.69;5071407;28;20048;-78
2022/12/21 06:45:10;;;;;;;25.75;14.00;;;;;;;1.35;100.00;96270.41;5071315;28;20036;-78
2022/12/21 06:47:36;;;;;;;26.50;13.73;;;;;;;1.40;100.00;96273.13;5072598;28;20052;-78
2022/12/21 06:50:03;;;;;;;23.30;12.45;;;;;;;1.41;100.00;96280.09;5072710;28;20131;-78
2022/12/21 06:52:32;;;;;;;23.33;11.57;;;;;;;1.46;100.00;96285.50;5073394;28;20074;-78
2022/12/21 06:54:58;;;;;;;26.33;11.68;;;;;;;1.55;100.00;96275.88;5072372;28;20048;-78
2022/12/21 06:57:25;;;;;;;19.83;11.25;;;;;;;1.61;100.00;96272.13;5072031;28;20041;-77
2022/12/21 06:59:51;;;;;;;21.35;11.02;;;;;;;1.70;100.00;96283.19;5072212;28;20040;-78
2022/12/21 07:02:18;;;;;;;17.10;9.85;;;;;;;1.78;100.00;96282.69;5071671;28;20045;-78
2022/12/21 07:04:44;;;;;;;18.17;9.57;;;;;;;1.82;100.00;96281.88;5071741;28;20052;-78
2022/12/21 07:07:11;;;;;;;19.92;9.18;;;;;;;1.82;100.00;96276.50;5070807;28;20045;-78
2022/12/21 07:09:39;;;;;;;18.48;9.10;;;;;;;1.94;100.00;96283.53;5071062;28;20044;-78
2022/12/21 07:12:05;;;;;;;18.67;9.40;;;;;;;2.02;100.00;96281.13;5070764;28;20445;-77
2022/12/21 07:14:32;;;;;;;16.73;8.57;;;;;;;2.07;100.00;96283.03;5071254;28;20044;-77
2022/12/21 07:16:58;;;;;;;16.58;7.88;;;;;;;2.11;100.00;96277.94;5071210;28;20048;-77
2022/12/21 07:19:25;;;;;;;17.98;8.43;;;;;;;2.16;100.00;96275.25;5070970;28;20408;-77
2022/12/21 07:21:51;;;;;;;15.70;8.23;;;;;;;2.19;100.00;96280.88;5070826;28;20566;-78
2022/12/21 07:24:18;;;;;;;20.58;8.90;;;;;;;2.18;100.00;96278.47;5072404;28;20044;-77
2022/12/21 07:26:46;;;;;;;15.23;8.35;;;;;;;2.19;100.00;96272.84;5070667;28;20415;-77
2022/12/21 07:29:12;;;;;;;16.67;8.45;;;;;;;2.19;100.00;96280.88;5070821;28;20482;-77
2022/12/21 07:31:39;;;;;;;15.20;7.75;;;;;;;2.22;100.00;96275.00;5071237;28;20044;-77
2022/12/21 07:34:06;;;;;;;17.65;8.05;;;;;;;2.23;100.00;96276.59;5070785;28;20041;-78
2022/12/21 07:36:33;;;;;;;14.88;8.20;;;;;;;2.26;100.00;96276.09;5070908;28;20052;-77
2022/12/21 07:38:59;;;;;;;15.27;7.35;;;;;;;2.27;100.00;96284.94;5070756;28;20044;-78
2022/12/21 07:41:26;;;;;;;15.75;8.30;;;;;;;2.32;100.00;96288.44;5070172;28;20048;-77
2022/12/21 07:43:53;;;;;;;14.55;8.70;;;;;;;2.37;100.00;96286.84;5070412;28;20045;-77
2022/12/21 07:46:20;;;;;;;17.92;9.50;;;;;;;2.36;100.00;96283.34;5070231;28;20376;-77
2022/12/21 07:48:46;;;;;;;18.38;9.65;;;;;;;2.38;100.00;96275.00;5070365;28;20044;-78
2022/12/21 07:51:13;;;;;;;16.05;9.43;;;;;;;2.37;100.00;96279.59;5070022;28;20036;-78
2022/12/21 07:53:40;;;;;;;17.50;9.73;;;;;;;2.34;100.00;96280.91;5069961;28;20053;-78
2022/12/21 07:56:11;;;;;;;15.40;8.45;;;;;;;2.38;100.00;96277.69;5069814;28;20052;-76
2022/12/21 07:58:38;;;;;;;14.88;8.27;;;;;;;2.42;100.00;96284.16;5070365;28;20044;-77
2022/12/21 08:01:09;;;;;;;15.93;8.93;;;;;;;2.42;100.00;96278.78;5070200;28;20040;-77
2022/12/21 08:03:37;;;;;;;20.88;9.82;;;;;;;2.39;100.00;96282.00;5070274;28;20068;-78
2022/12/21 08:06:03;;;;;;;13.85;8.77;;;;;;;2.41;100.00;96287.94;5069571;28;20041;-76
2022/12/21 08:08:30;;;;;;;16.30;8.57;;;;;;;2.43;100.00;96286.56;5069590;28;20503;-77
2022/12/21 08:10:56;;;;;;;17.20;8.90;;;;;;;2.49;100.00;96280.13;5070127;28;20047;-77
2022/12/21 08:13:24;;;;;;;16.88;8.93;;;;;;;2.52;100.00;96273.41;5069505;28;20515;-77
2022/12/21 08:15:58;;;;;;;13.68;8.77;;;;;;;2.55;100.00;96278.25;5069903;28;20041;-77
2022/12/21 08:18:27;;;;;;;16.15;8.32;;;;;;;2.56;100.00;96274.50;5069583;28;20074;-78
2022/12/21 08:20:54;;;;;;;22.10;9.38;;;;;;;2.60;100.00;96281.72;5069034;28;20438;-78
2022/12/21 08:23:20;;;;;;;17.58;8.82;;;;;;;2.65;100.00;96282.81;5069113;28;20047;-77
2022/12/21 08:25:47;;;;;;;21.08;10.75;;;;;;;2.68;100.00;96282.28;5069629;28;20048;-77
2022/12/21 08:28:14;;;;;;;20.55;9.68;;;;;;;2.72;100.00;96276.09;5069482;28;20044;-77
2022/12/21 08:30:41;;;;;;;20.15;9.60;;;;;;;2.78;100.00;96277.72;5069567;28;20041;-77
2022/12/21 08:33:09;;;;;;;16.92;9.20;;;;;;;2.79;100.00;96279.31;5069402;28;20071;-77
2022/12/21 08:35:37;;;;;;;16.23;9.45;;;;;;;2.88;100.00;96283.09;5069398;28;20488;-77
2022/12/21 08:38:04;;;;;;;17.48;9.02;;;;;;;2.95;100.00;96282.81;5069272;28;20442;-77
2022/12/21 08:40:31;;;;;;;17.67;10.40;;;;;;;2.97;100.00;96279.84;5069667;28;20610;-77
2022/12/21 08:42:58;;;;;;;17.20;9.55;;;;;;;2.96;100.00;96278.22;5069583;28;20044;-78
2022/12/21 08:45:24;;;;;;;17.45;9.98;;;;;;;3.02;100.00;96272.56;5069009;28;20536;-78
2022/12/21 08:47:50;;;;;;;16.88;9.93;;;;;;;3.06;100.00;96278.22;5069651;28;20040;-77
2022/12/21 08:50:17;;;;;;;16.35;9.88;;;;;;;3.09;100.00;96280.38;5069129;28;20491;-78
2022/12/21 08:52:45;;;;;;;17.55;9.70;;;;;;;3.18;100.00;96277.91;5069059;28;20067;-78
2022/12/21 08:55:11;;;;;;;16.35;9.93;;;;;;;3.21;100.00;96280.88;5069218;28;20045;-78
2022/12/21 08:57:38;;;;;;;20.10;10.85;;;;;;;3.24;100.00;96276.84;5069529;28;20040;-77
2022/12/21 09:00:09;;;;;;;19.75;9.52;;;;;;;3.28;100.00;96280.59;5069335;28;20045;-77
2022/12/21 09:02:36;;;;;;;21.08;9.88;;;;;;;3.29;100.00;96283.03;5069236;28;20047;-78
2022/12/21 09:05:05;;;;;;;18.30;9.65;;;;;;;3.29;100.00;96276.81;5068885;28;20179;-76
2022/12/21 09:07:31;;;;;;;16.27;9.45;;;;;;;3.32;100.00;96282.47;5069365;28;20051;-78
2022/12/21 09:09:59;;;;;;;19.35;9.93;;;;;;;3.28;100.00;96286.78;5069576;28;20434;-78
2022/12/21 09:12:26;;;;;;;18.30;9.70;;;;;;;3.30;100.00;96290.00;5068762;28;20044;-78
2022/12/21 09:14:53;;;;;;;18.20;9.98;;;;;;;3.33;100.00;96284.06;5061498;28;20040;-78
2022/12/21 09:17:19;;;;;;;18.13;10.10;;;;;;;3.37;100.00;96279.75;5068869;28;20048;-77
2022/12/21 09:19:46;;;;;;;19.95;10.10;;;;;;;3.41;100.00;96280.03;5068903;28;20049;-78
2022/12/21 09:22:12;;;;;;;23.50;11.23;;;;;;;3.47;100.00;96278.91;5068537;28;20051;-77
2022/12/21 09:24:39;;;;;;;17.92;9.88;;;;;;;3.48;100.00;96279.72;5069303;28;20414;-78
2022/12/21 09:27:07;;;;;;;19.40;10.25;;;;;;;3.50;100.00;96280.25;5068437;28;20048;-78
2022/12/21 09:29:33;;;;;;;22.25;9.70;;;;;;;3.52;100.00;96278.09;5069079;28;20067;-78
2022/12/21 09:32:00;;;;;;;20.63;9.90;;;;;;;3.52;100.00;96272.72;5071692;28;20495;-77
2022/12/21 09:34:26;;;;;;;20.50;10.60;;;;;;;3.52;100.00;96270.81;5072533;28;20491;-78
2022/12/21 09:36:52;;;;;;;19.08;9.65;;;;;;;3.49;100.00;96265.97;5065040;28;20055;-77
2022/12/21 09:39:19;;;;;;;22.65;10.18;;;;;;;3.52;100.00;96272.72;5072397;28;20047;-78
2022/12/21 09:41:58;;;;;;;28.77;11.65;;;;;;;3.56;100.00;96268.41;5072690;28;20052;-77
2022/12/21 09:44:54;;;;;;;24.35;10.48;;;;;;;3.54;100.00;96265.16;5072441;28;20048;-78
2022/12/21 09:47:30;;;;;;;22.92;10.45;;;;;;;3.57;100.00;96267.31;5065546;28;20051;-78
2022/12/21 09:50:00;;;;;;;16.20;9.88;;;;;;;3.61;100.00;96260.31;5065026;28;20119;-77
2022/12/21 09:52:30;;;;;;;20.77;10.95;;;;;;;3.64;100.00;96257.03;5072008;28;20132;-77
2022/12/21 09:55:03;;;;;;;16.55;9.93;;;;;;;3.66;100.00;96255.69;5064809;28;20492;-78
2022/12/21 09:57:33;;;;;;;18.73;9.60;;;;;;;3.74;100.00;96251.63;5072402;28;20369;-77
2022/12/21 10:00:01;;;;;;;19.80;9.95;;;;;;;3.82;100.00;96245.66;5072846;28;20045;-78
2022/12/21 10:02:41;;;;;;;19.30;9.63;;;;;;;3.89;100.00;96245.34;5071923;28;20040;-78
2022/12/21 10:05:21;;;;;;;21.85;10.48;;;;;;;3.90;100.00;96239.66;5065953;28;20041;-76
2022/12/21 10:08:08;;;;;;;20.67;10.93;;;;;;;3.91;100.00;96244.00;5072932;28;22133;-77
2022/12/21 10:10:38;;;;;;;20.52;11.40;;;;;;;4.02;100.00;96241.22;5072231;28;20480;-78
2022/12/21 10:13:19;;;;;;;19.83;10.57;;;;;;;4.10;100.00;96235.25;5072114;28;20083;-77
2022/12/21 10:15:56;;;;;;;24.17;10.27;;;;;;;4.10;100.00;96238.75;5072337;28;20067;-78
2022/12/21 10:18:32;;;;;;;25.70;11.32;;;;;;;4.12;100.00;96241.16;5071971;28;20043;-77
2022/12/21 10:21:12;;;;;;;18.65;10.48;;;;;;;4.20;100.00;96237.88;5065197;28;20515;-77
2022/12/21 10:23:44;;;;;;;18.60;11.45;;;;;;;4.24;100.00;96238.13;5051884;28;20049;-78
2022/12/21 10:26:15;;;;;;;15.57;10.10;;;;;;;4.31;100.00;96244.81;5061603;28;20041;-77
2022/12/21 10:28:48;;;;;;;23.90;11.27;;;;;;;4.36;100.00;96239.38;5066835;28;20558;-77
2022/12/21 10:31:21;;;;;;;20.05;11.00;;;;;;;4.40;100.00;96235.06;5052029;28;20687;-78
2022/12/21 10:33:51;;;;;;;20.75;11.30;;;;;;;4.43;100.00;96237.16;5051519;28;20049;-77
2022/12/21 10:36:21;;;;;;;20.95;12.05;;;;;;;4.50;100.00;96238.75;5051504;28;20041;-78
2022/12/21 10:38:48;;;;;;;22.45;11.70;;;;;;;4.59;100.00;96234.34;5051988;28;20152;-77
2022/12/21 10:41:19;;;;;;;17.48;11.05;;;;;;;4.72;100.00;96228.31;5051830;28;20041;-77
2022/12/21 10:43:48;;;;;;;20.20;11.23;;;;;;;4.77;100.00;96233.66;5050873;28;20056;-77
2022/12/21 10:46:16;;;;;;;26.20;12.40;;;;;;;4.93;100.00;96228.94;5051551;28;20449;-78
2022/12/21 10:48:42;;;;;;;24.52;11.73;;;;;;;5.05;100.00;96231.25;5051698;28;20065;-78
2022/12/21 10:51:27;;;;;;;26.33;13.82;;;;;;;5.19;100.00;96232.19;5051739;28;20072;-77
2022/12/21 10:54:01;;;;;;;21.33;13.07;;;;;;;5.26;100.00;96227.22;5051703;28;20100;-78
2022/12/21 10:56:30;;;;;;;22.00;12.93;;;;;;;5.31;100.00;96223.66;5059532;28;20407;-78
2022/12/21 10:59:05;;;;;;;19.25;11.52;;;;;;;5.31;100.00;96224.47;5052104;28;20045;-78
2022/12/21 11:01:33;;;;;;;19.77;11.27;;;;;;;5.37;100.00;96217.91;5071203;28;20055;-77
2022/12/21 11:04:09;;;;;;;15.10;9.60;;;;;;;5.34;100.00;96223.91;5071935;28;20045;-77
2022/12/21 11:06:37;;;;;;;20.67;10.85;;;;;;;5.36;100.00;96210.91;5071377;28;20064;-77
2022/12/21 11:09:28;;;;;;;18.52;10.35;;;;;;;5.36;100.00;96216.31;5071426;28;20044;-77
2022/12/21 11:11:55;;;;;;;20.00;12.27;;;;;;;5.39;100.00;96212.25;5063602;28;20121;-77
2022/12/21 11:14:23;;;;;;;21.70;11.10;;;;;;;5.26;100.00;96208.34;5071071;28;20040;-77
2022/12/21 11:16:50;;;;;;;17.13;9.95;;;;;;;5.36;100.00;96199.31;5071141;28;20064;-78
2022/12/21 11:19:20;;;;;;;19.52;10.48;;;;;;;5.43;100.00;96195.19;5071282;28;20140;-77
2022/12/21 11:21:51;;;;;;;17.75;10.15;;;;;;;5.39;100.00;96193.34;5071390;28;20135;-77
2022/12/21 11:24:22;;;;;;;16.83;10.00;;;;;;;5.47;100.00;96196.19;5070730;28;20056;-77
2022/12/21 11:26:51;;;;;;;14.00;9.13;;;;;;;5.37;100.00;96201.72;5071096;28;20047;-77
2022/12/21 11:29:22;;;;;;;14.63;8.75;;;;;;;5.40;100.00;96201.16;5070926;28;20048;-77
2022/12/21 11:31:50;;;;;;;12.45;8.55;;;;;;;5.33;100.00;96187.22;5071012;28;20127;-77
2022/12/21 11:34:32;;;;;;;13.60;8.30;;;;;;;5.35;100.00;96182.31;5070628;28;20052;-77
2022/12/21 11:37:03;;;;;;;11.18;7.40;;;;;;;5.43;100.00;96187.09;5063822;28;20048;-77
2022/12/21 11:39:30;;;;;;;15.25;9.63;;;;;;;5.42;100.00;96181.97;5070480;28;20522;-77
2022/12/21 11:41:57;;;;;;;14.95;9.10;;;;;;;5.46;100.00;96183.00;5070513;28;20048;-77
2022/12/21 11:44:25;;;;;;;14.02;8.98;;;;;;;5.51;100.00;96180.22;5071218;28;20048;-78
2022/12/21 11:47:08;;;;;;;15.45;8.80;;;;;;;5.59;100.00;96181.50;5071042;28;20048;-78